createdAt,value
2022-07-25T00:01:56.878Z,15.25
2022-07-25T00:05:10.314Z,15.13
2022-07-25T00:08:21.973Z,15.08
2022-07-25T00:11:27.562Z,15.24
2022-07-25T00:14:36.001Z,15.17
2022-07-25T00:17:42.524Z,15.08
2022-07-25T00:20:48.297Z,15.24
2022-07-25T00:23:56.713Z,15.32
2022-07-25T00:27:09.157Z,15.21
2022-07-25T00:30:18.365Z,15.24
2022-07-25T00:33:36.298Z,15.39
2022-07-25T00:36:42.009Z,15.54
2022-07-25T00:39:48.492Z,15.57
2022-07-25T00:42:54.151Z,15.43
2022-07-25T00:46:08.724Z,15.39
2022-07-25T00:49:19.378Z,15.47
2022-07-25T00:52:26.609Z,15.47
2022-07-25T00:55:35.083Z,15.47
2022-07-25T00:58:41.099Z,15.42
2022-07-25T01:01:54.610Z,15.34
2022-07-25T01:05:00.340Z,15.19
2022-07-25T01:08:13.083Z,15.17
2022-07-25T01:11:18.879Z,15.26
2022-07-25T01:14:25.571Z,15.09
2022-07-25T01:17:33.716Z,14.88
2022-07-25T01:20:42.008Z,14.83
2022-07-25T01:23:47.663Z,14.83
2022-07-25T01:26:55.875Z,15.00
2022-07-25T01:30:01.527Z,15.13
2022-07-25T01:33:12.579Z,15.16
2022-07-25T01:36:20.859Z,14.95
2022-07-25T01:39:26.445Z,14.99
2022-07-25T01:42:32.076Z,15.05
2022-07-25T01:45:38.421Z,14.96
2022-07-25T01:48:45.235Z,15.05
2022-07-25T01:51:53.462Z,15.13
2022-07-25T01:54:59.186Z,15.17
2022-07-25T01:58:05.299Z,15.01
2022-07-25T02:01:13.026Z,14.89
2022-07-25T02:04:18.821Z,14.76
2022-07-25T02:07:27.158Z,14.65
2022-07-25T02:10:43.196Z,14.54
2022-07-25T02:13:48.875Z,14.53
2022-07-25T02:16:57.764Z,14.47
2022-07-25T02:20:08.269Z,14.54
2022-07-25T02:23:21.753Z,14.62
2022-07-25T02:26:27.857Z,14.69
2022-07-25T02:29:33.507Z,14.70
2022-07-25T02:32:44.879Z,14.56
2022-07-25T02:35:57.390Z,14.19
2022-07-25T02:39:07.680Z,14.10
2022-07-25T02:42:15.637Z,14.22
2022-07-25T02:45:21.528Z,14.31
2022-07-25T02:48:33.846Z,14.34
2022-07-25T02:51:39.552Z,14.42
2022-07-25T02:54:47.682Z,14.39
2022-07-25T02:57:56.332Z,14.46
2022-07-25T03:01:02.005Z,14.41
2022-07-25T03:04:11.815Z,14.12
2022-07-25T03:07:19.116Z,13.80
2022-07-25T03:10:29.920Z,13.58
2022-07-25T03:13:36.106Z,13.54
2022-07-25T03:16:42.040Z,13.38
2022-07-25T03:19:47.826Z,13.19
2022-07-25T03:22:53.625Z,13.25
2022-07-25T03:26:05.580Z,13.21
2022-07-25T03:29:11.285Z,12.91
2022-07-25T03:32:19.169Z,12.57
2022-07-25T03:35:26.323Z,12.44
2022-07-25T03:38:32.115Z,12.47
2022-07-25T03:41:48.339Z,12.45
2022-07-25T03:45:19.308Z,12.36
2022-07-25T03:48:24.922Z,12.43
2022-07-25T03:51:33.722Z,12.76
2022-07-25T03:54:39.288Z,12.90
2022-07-25T03:57:47.515Z,13.11
2022-07-25T04:00:53.186Z,13.10
2022-07-25T04:03:59.358Z,13.35
2022-07-25T04:07:29.545Z,14.00
2022-07-25T04:10:35.963Z,14.37
2022-07-25T04:13:44.973Z,14.72
2022-07-25T04:16:50.557Z,14.69
2022-07-25T04:19:59.265Z,15.07
2022-07-25T04:23:05.025Z,15.17
2022-07-25T04:26:10.992Z,15.39
2022-07-25T04:29:19.329Z,15.29
2022-07-25T04:32:31.420Z,15.81
2022-07-25T04:35:38.645Z,15.50
2022-07-25T04:38:50.447Z,16.31
2022-07-25T04:41:56.225Z,16.71
2022-07-25T04:45:26.482Z,16.28
2022-07-25T04:48:32.446Z,17.50
2022-07-25T04:51:38.015Z,17.12
2022-07-25T04:54:46.580Z,18.16
2022-07-25T04:57:52.259Z,19.29
2022-07-25T05:01:00.587Z,19.28
2022-07-25T05:04:12.661Z,19.60
2022-07-25T05:07:18.228Z,19.01
2022-07-25T05:10:23.827Z,20.29
2022-07-25T05:13:29.391Z,19.81
2022-07-25T05:16:38.891Z,19.51
2022-07-25T05:19:45.143Z,19.80
2022-07-25T05:22:50.702Z,20.48
2022-07-25T05:25:56.361Z,20.86
2022-07-25T05:29:03.961Z,21.18
2022-07-25T05:32:12.339Z,21.64
2022-07-25T05:35:18.749Z,21.18
2022-07-25T05:38:25.044Z,21.40
2022-07-25T05:41:30.655Z,22.36
2022-07-25T05:44:36.734Z,23.35
2022-07-25T05:47:44.945Z,23.92
2022-07-25T05:50:50.556Z,23.54
2022-07-25T05:53:56.238Z,22.97
2022-07-25T05:57:01.908Z,23.11
2022-07-25T06:00:10.628Z,23.82
2022-07-25T06:03:18.996Z,23.40
2022-07-25T06:06:24.744Z,23.13
2022-07-25T06:09:30.809Z,23.42
2022-07-25T06:12:39.009Z,22.16
2022-07-25T06:15:48.869Z,21.46
2022-07-25T06:18:56.989Z,22.28
2022-07-25T06:22:02.599Z,22.19
2022-07-25T06:25:09.953Z,22.30
2022-07-25T06:28:18.146Z,23.51
2022-07-25T06:31:24.174Z,22.65
2022-07-25T06:34:32.809Z,23.18
2022-07-25T06:37:41.717Z,23.48
2022-07-25T06:40:47.262Z,24.60
2022-07-25T06:43:52.799Z,23.73
2022-07-25T06:46:59.591Z,24.01
2022-07-25T06:50:11.238Z,24.23
2022-07-25T06:53:17.234Z,24.22
2022-07-25T06:56:31.762Z,23.45
2022-07-25T06:59:37.274Z,22.60
2022-07-25T07:02:53.590Z,23.82
2022-07-25T07:06:02.051Z,24.27
2022-07-25T07:09:14.546Z,24.76
2022-07-25T07:12:30.393Z,25.01
2022-07-25T07:15:36.513Z,25.18
2022-07-25T07:18:47.241Z,26.39
2022-07-25T07:21:57.448Z,27.29
2022-07-25T07:25:08.003Z,28.31
2022-07-25T07:28:14.269Z,28.12
2022-07-25T07:31:28.840Z,26.65
2022-07-25T07:34:34.416Z,28.20
2022-07-25T07:37:47.247Z,28.94
2022-07-25T07:40:52.825Z,28.92
2022-07-25T07:44:02.369Z,28.21
2022-07-25T07:47:14.509Z,28.33
2022-07-25T07:50:25.630Z,27.68
2022-07-25T07:53:46.968Z,27.59
2022-07-25T07:56:52.602Z,28.68
2022-07-25T07:59:59.529Z,28.33
2022-07-25T08:03:06.956Z,28.42
2022-07-25T08:06:12.633Z,29.15
2022-07-25T08:09:20.966Z,29.58
2022-07-25T08:12:27.405Z,29.29
2022-07-25T08:15:33.135Z,30.19
2022-07-25T08:18:38.782Z,31.17
2022-07-25T08:21:46.867Z,30.41
2022-07-25T08:24:55.527Z,29.76
2022-07-25T08:28:05.015Z,29.61
2022-07-25T08:31:11.122Z,30.06
2022-07-25T08:34:16.691Z,29.17
2022-07-25T08:37:22.287Z,28.29
2022-07-25T08:40:32.897Z,29.16
2022-07-25T08:43:40.931Z,28.36
2022-07-25T08:46:47.797Z,27.78
2022-07-25T08:49:53.871Z,27.76
2022-07-25T08:53:36.097Z,28.16
2022-07-25T08:56:44.550Z,27.65
2022-07-25T08:59:50.073Z,27.79
2022-07-25T09:02:57.090Z,28.51
2022-07-25T09:06:04.999Z,28.85
2022-07-25T09:09:14.089Z,28.53
2022-07-25T09:12:30.032Z,27.06
2022-07-25T09:15:40.078Z,28.67
2022-07-25T09:18:52.205Z,29.95
2022-07-25T09:22:04.959Z,30.23
2022-07-25T09:25:30.034Z,29.49
2022-07-25T09:28:46.386Z,29.74
2022-07-25T09:31:54.275Z,29.62
2022-07-25T09:34:59.846Z,28.94
2022-07-25T09:38:17.367Z,29.12
2022-07-25T09:41:37.611Z,28.75
2022-07-25T09:44:46.937Z,28.28
2022-07-25T09:47:59.090Z,28.43
2022-07-25T09:51:15.834Z,29.84
2022-07-25T09:54:26.248Z,29.52
2022-07-25T09:57:34.008Z,29.35
2022-07-25T10:00:46.432Z,27.69
2022-07-25T10:03:57.116Z,28.52
2022-07-25T10:07:20.292Z,28.88
2022-07-25T10:10:32.454Z,29.09
2022-07-25T10:13:39.436Z,28.70
2022-07-25T10:16:52.443Z,27.99
2022-07-25T10:19:58.977Z,28.85
2022-07-25T10:23:05.247Z,28.15
2022-07-25T10:26:28.203Z,28.51
2022-07-25T10:29:38.135Z,28.27
2022-07-25T10:32:53.755Z,28.06
2022-07-25T10:36:11.277Z,26.93
2022-07-25T10:39:21.506Z,27.52
2022-07-25T10:42:28.258Z,27.34
2022-07-25T10:45:46.398Z,28.14
2022-07-25T10:49:08.273Z,28.51
2022-07-25T10:52:20.904Z,28.20
2022-07-25T10:55:38.201Z,27.78
2022-07-25T10:58:55.095Z,28.59
2022-07-25T11:02:01.261Z,28.85
2022-07-25T11:05:12.858Z,27.67
2022-07-25T11:08:22.176Z,28.24
2022-07-25T11:11:38.743Z,28.63
2022-07-25T11:14:49.241Z,28.62
2022-07-25T11:17:58.740Z,28.66
2022-07-25T11:21:15.025Z,28.63
2022-07-25T11:24:20.882Z,28.97
2022-07-25T11:27:36.331Z,28.57
2022-07-25T11:30:42.179Z,28.98
2022-07-25T11:33:52.431Z,29.73
2022-07-25T11:37:04.549Z,29.83
2022-07-25T11:40:16.483Z,28.41
2022-07-25T11:43:27.367Z,27.65
2022-07-25T11:46:33.087Z,27.72
2022-07-25T11:49:48.767Z,28.19
2022-07-25T11:53:04.982Z,27.97
2022-07-25T11:56:42.316Z,28.66
2022-07-25T11:59:46.295Z,29.95
2022-07-25T12:02:53.526Z,29.42
2022-07-25T12:05:59.168Z,29.94
2022-07-25T12:09:27.990Z,29.06
2022-07-25T12:12:50.745Z,29.57
2022-07-25T12:15:59.279Z,28.47
2022-07-25T12:19:05.750Z,29.15
2022-07-25T12:22:11.453Z,28.41
2022-07-25T12:25:30.823Z,28.51
2022-07-25T12:28:36.716Z,28.43
2022-07-25T12:31:42.294Z,29.10
2022-07-25T12:34:47.849Z,29.29
2022-07-25T12:37:54.017Z,28.28
2022-07-25T12:41:08.724Z,28.73
2022-07-25T12:44:18.449Z,28.62
2022-07-25T12:47:25.307Z,28.66
2022-07-25T12:50:30.866Z,28.24
2022-07-25T12:53:42.506Z,28.68
2022-07-25T12:56:51.326Z,27.80
2022-07-25T12:59:57.306Z,27.96
2022-07-25T13:03:03.732Z,27.74
2022-07-25T13:06:10.255Z,27.76
2022-07-25T13:09:16.038Z,27.73
2022-07-25T13:12:25.717Z,27.78
2022-07-25T13:15:31.302Z,27.31
2022-07-25T13:18:40.217Z,27.22
2022-07-25T13:21:46.795Z,27.39
2022-07-25T13:24:52.407Z,27.41
2022-07-25T13:28:00.656Z,27.39
2022-07-25T13:31:18.800Z,27.31
2022-07-25T13:34:25.489Z,27.20
2022-07-25T13:37:31.114Z,26.46
2022-07-25T13:40:40.909Z,26.64
2022-07-25T13:43:49.060Z,26.85
2022-07-25T13:46:56.104Z,27.04
2022-07-25T13:50:01.626Z,27.11
2022-07-25T13:53:08.652Z,27.18
2022-07-25T13:56:16.017Z,27.31
2022-07-25T13:59:24.875Z,27.34
2022-07-25T14:02:30.580Z,27.58
2022-07-25T14:05:38.800Z,27.34
2022-07-25T14:08:46.440Z,27.49
2022-07-25T14:11:52.498Z,27.63
2022-07-25T14:15:03.100Z,27.41
2022-07-25T14:18:09.801Z,26.87
2022-07-25T14:21:15.423Z,26.76
2022-07-25T14:24:21.242Z,26.75
2022-07-25T14:27:27.312Z,27.21
2022-07-25T14:30:35.574Z,27.19
2022-07-25T14:33:41.393Z,27.47
2022-07-25T14:36:47.906Z,27.39
2022-07-25T14:39:54.231Z,27.39
2022-07-25T14:42:59.877Z,27.18
2022-07-25T14:46:14.444Z,27.26
2022-07-25T14:49:20.126Z,27.22
2022-07-25T14:52:32.800Z,27.37
2022-07-25T14:55:48.158Z,27.31
2022-07-25T14:58:53.731Z,27.26
2022-07-25T15:02:08.773Z,27.44
2022-07-25T15:05:14.503Z,27.58
2022-07-25T15:08:20.217Z,27.61
2022-07-25T15:11:27.284Z,27.38
2022-07-25T15:14:32.984Z,27.49
2022-07-25T15:17:43.902Z,27.20
2022-07-25T15:20:49.460Z,27.55
2022-07-25T15:23:57.536Z,27.79
2022-07-25T15:27:04.182Z,27.77
2022-07-25T15:30:11.629Z,27.82
2022-07-25T15:33:20.220Z,27.87
2022-07-25T15:36:29.355Z,27.87
2022-07-25T15:39:35.459Z,27.74
2022-07-25T15:42:42.517Z,27.73
2022-07-25T15:45:50.215Z,27.47
2022-07-25T15:48:58.622Z,27.47
2022-07-25T15:52:09.617Z,27.97
2022-07-25T15:55:15.853Z,27.79
2022-07-25T15:58:21.626Z,27.88
2022-07-25T16:01:27.260Z,27.76
2022-07-25T16:04:35.633Z,27.90
2022-07-25T16:07:43.136Z,27.92
2022-07-25T16:10:48.659Z,27.71
2022-07-25T16:13:54.356Z,27.81
2022-07-25T16:16:59.972Z,27.92
2022-07-25T16:20:15.812Z,27.96
2022-07-25T16:23:23.340Z,27.82
2022-07-25T16:26:29.768Z,27.63
2022-07-25T16:29:37.741Z,27.71
2022-07-25T16:32:51.464Z,27.75
2022-07-25T16:36:03.907Z,27.56
2022-07-25T16:39:12.465Z,27.62
2022-07-25T16:42:18.015Z,27.77
2022-07-25T16:45:23.671Z,27.52
2022-07-25T16:48:38.199Z,27.10
2022-07-25T16:51:47.764Z,26.72
2022-07-25T16:54:56.450Z,26.93
2022-07-25T16:58:08.900Z,26.84
2022-07-25T17:01:22.924Z,26.85
2022-07-25T17:04:30.194Z,26.89
2022-07-25T17:07:40.265Z,26.80
2022-07-25T17:10:50.646Z,26.84
2022-07-25T17:13:56.396Z,26.46
2022-07-25T17:17:02.325Z,26.39
2022-07-25T17:20:09.677Z,26.20
2022-07-25T17:23:24.754Z,26.29
2022-07-25T17:26:30.365Z,26.64
2022-07-25T17:29:46.004Z,26.63
2022-07-25T17:32:52.372Z,26.77
2022-07-25T17:35:59.935Z,26.65
2022-07-25T17:39:18.173Z,26.45
2022-07-25T17:42:24.113Z,26.25
2022-07-25T17:45:29.762Z,26.23
2022-07-25T17:48:36.314Z,26.18
2022-07-25T17:51:41.851Z,26.16
2022-07-25T17:54:49.995Z,26.18
2022-07-25T17:57:55.915Z,26.07
2022-07-25T18:01:09.977Z,25.97
2022-07-25T18:04:19.507Z,25.90
2022-07-25T18:07:25.260Z,25.84
2022-07-25T18:10:39.893Z,25.80
2022-07-25T18:13:50.122Z,25.64
2022-07-25T18:16:55.939Z,25.48
2022-07-25T18:20:01.674Z,25.28
2022-07-25T18:23:09.936Z,25.20
2022-07-25T18:26:18.764Z,24.97
2022-07-25T18:29:26.857Z,24.80
2022-07-25T18:32:33.107Z,24.69
2022-07-25T18:35:39.494Z,24.46
2022-07-25T18:38:45.612Z,24.44
2022-07-25T18:41:54.576Z,24.27
2022-07-25T18:45:00.675Z,24.25
2022-07-25T18:48:18.274Z,24.09
2022-07-25T18:51:23.987Z,23.93
2022-07-25T18:54:31.032Z,23.80
2022-07-25T18:57:40.226Z,23.67
2022-07-25T19:00:48.707Z,23.56
2022-07-25T19:03:57.926Z,23.41
2022-07-25T19:07:04.582Z,23.34
2022-07-25T19:10:11.337Z,23.32
2022-07-25T19:13:46.608Z,23.24
2022-07-25T19:16:46.664Z,23.19
2022-07-25T19:19:52.357Z,23.16
2022-07-25T19:22:58.060Z,22.99
2022-07-25T19:26:12.028Z,22.93
2022-07-25T19:29:23.828Z,22.87
2022-07-25T19:32:29.817Z,22.76
2022-07-25T19:35:42.408Z,22.82
2022-07-25T19:38:53.250Z,22.75
2022-07-25T19:41:59.241Z,22.63
2022-07-25T19:45:09.233Z,22.54
2022-07-25T19:48:14.937Z,22.44
2022-07-25T19:51:35.096Z,22.33
2022-07-25T19:54:41.251Z,22.19
2022-07-25T19:57:47.400Z,22.23
2022-07-25T20:00:58.064Z,22.10
2022-07-25T20:04:05.624Z,21.94
2022-07-25T20:07:11.714Z,21.91
2022-07-25T20:10:17.781Z,21.86
2022-07-25T20:13:23.656Z,21.74
2022-07-25T20:16:31.998Z,21.69
2022-07-25T20:19:38.417Z,21.67
2022-07-25T20:22:45.532Z,21.66
2022-07-25T20:25:54.243Z,21.49
2022-07-25T20:28:59.916Z,21.45
2022-07-25T20:32:09.089Z,21.33
2022-07-25T20:35:15.064Z,21.21
2022-07-25T20:38:20.731Z,21.26
2022-07-25T20:41:26.850Z,21.16
2022-07-25T20:44:34.590Z,21.08
2022-07-25T20:47:42.762Z,21.05
2022-07-25T20:50:48.324Z,21.08
2022-07-25T20:53:53.991Z,20.99
2022-07-25T20:56:59.552Z,20.95
2022-07-25T21:00:05.381Z,20.84
2022-07-25T21:03:13.774Z,20.87
2022-07-25T21:06:20.107Z,20.71
2022-07-25T21:09:37.821Z,20.69
2022-07-25T21:12:45.467Z,20.62
2022-07-25T21:15:51.098Z,20.59
2022-07-25T21:19:00.572Z,20.59
2022-07-25T21:22:06.342Z,20.53
2022-07-25T21:25:14.430Z,20.55
2022-07-25T21:28:19.937Z,20.47
2022-07-25T21:31:25.780Z,20.53
2022-07-25T21:34:34.250Z,20.54
2022-07-25T21:37:40.261Z,20.42
2022-07-25T21:40:45.898Z,20.36
2022-07-25T21:43:51.556Z,20.29
2022-07-25T21:46:57.115Z,20.14
2022-07-25T21:50:24.503Z,20.06
2022-07-25T21:53:31.996Z,20.02
2022-07-25T21:56:37.610Z,19.91
2022-07-25T21:59:43.239Z,19.97
2022-07-25T22:02:50.400Z,19.75
2022-07-25T22:05:58.629Z,19.68
2022-07-25T22:09:04.922Z,19.55
2022-07-25T22:12:11.997Z,19.52
2022-07-25T22:15:18.591Z,19.23
2022-07-25T22:18:28.196Z,19.13
2022-07-25T22:21:38.309Z,19.13
2022-07-25T22:24:46.593Z,19.04
2022-07-25T22:27:52.460Z,19.08
2022-07-25T22:30:58.116Z,19.03
2022-07-25T22:34:03.744Z,18.90
2022-07-25T22:37:11.883Z,18.91
2022-07-25T22:40:17.848Z,18.88
2022-07-25T22:43:23.436Z,18.97
2022-07-25T22:46:49.152Z,18.92
2022-07-25T22:49:54.736Z,18.93
2022-07-25T22:53:02.994Z,18.87
2022-07-25T22:56:08.725Z,18.71
2022-07-25T22:59:16.315Z,18.72
2022-07-25T23:02:21.985Z,18.57
2022-07-25T23:05:31.644Z,18.57
2022-07-25T23:08:43.622Z,18.46
2022-07-25T23:11:49.303Z,18.35
2022-07-25T23:14:55.960Z,18.24
2022-07-25T23:18:05.478Z,18.03
2022-07-25T23:21:11.353Z,17.82
2022-07-25T23:24:19.526Z,17.82
2022-07-25T23:27:25.642Z,17.75
2022-07-25T23:30:34.195Z,17.76
2022-07-25T23:33:42.276Z,17.85
2022-07-25T23:36:47.855Z,17.85
2022-07-25T23:39:56.661Z,17.84
2022-07-25T23:43:02.475Z,17.74
2022-07-25T23:46:09.782Z,17.69
2022-07-25T23:49:17.274Z,17.73
2022-07-25T23:52:22.896Z,17.58
2022-07-25T23:55:31.283Z,17.49
2022-07-25T23:58:36.826Z,17.74
